Time;durP1;ratioP1;P1;durP2;ratioP2;P2;SDS_P1;SDS_P2;PMS_P1;PMS_P2;Temp;Humidity;BMP_temperature;BMP_pressure;BME280_temperature;BME280_humidity;BME280_pressure;Samples;Min_cycle;Max_cycle;Signal;HPM_P1;HPM_P2
2021/07/06 00:02:16;;;;;;;;;2.00;2.00;;;;;21.32;73.59;100115.78;5013856;28;46109;-81
2021/07/06 00:04:42;;;;;;;;;2.50;2.50;;;;;21.30;73.47;100113.28;5014578;28;45604;-81
2021/07/06 00:07:07;;;;;;;;;2.50;2.50;;;;;21.29;73.64;100097.34;5014727;28;46162;-80
2021/07/06 00:09:33;;;;;;;;;1.50;1.50;;;;;21.28;73.19;100091.16;5014892;28;45633;-81
2021/07/06 00:11:58;;;;;;;;;2.50;2.50;;;;;21.28;73.53;100099.16;5012685;28;45550;-81
2021/07/06 00:14:23;;;;;;;;;3.50;2.50;;;;;21.29;73.46;100086.63;5014350;28;45544;-80
2021/07/06 00:16:49;;;;;;;;;3.00;2.75;;;;;21.29;72.59;100079.47;5014400;28;45905;-81
2021/07/06 00:19:15;;;;;;;;;2.00;2.00;;;;;21.32;72.55;100094.41;5013693;28;45309;-81
2021/07/06 00:21:40;;;;;;;;;1.75;1.00;;;;;21.32;72.25;100084.56;5013195;28;45400;-79
2021/07/06 00:24:06;;;;;;;;;2.50;1.00;;;;;21.34;71.91;100071.88;5013445;28;45415;-80
2021/07/06 00:26:31;;;;;;;;;3.00;1.50;;;;;21.35;71.89;100065.56;5013728;28;46312;-80
2021/07/06 00:28:56;;;;;;;;;3.75;1.00;;;;;21.38;71.89;100069.75;5014146;28;51217;-80
2021/07/06 00:31:22;;;;;;;;;1.50;1.50;;;;;21.39;71.38;100068.75;5014437;28;45351;-81
2021/07/06 00:33:47;;;;;;;;;1.25;1.25;;;;;21.41;71.72;100065.94;5014344;28;45478;-81
2021/07/06 00:36:12;;;;;;;;;2.00;1.25;;;;;21.41;71.10;100057.91;5016411;28;46547;-79
2021/07/06 00:38:38;;;;;;;;;4.00;2.25;;;;;21.40;71.79;100069.56;5021953;28;45317;-79
2021/07/06 00:41:03;;;;;;;;;2.50;2.50;;;;;21.42;71.51;100067.63;5020771;28;45671;-79
2021/07/06 00:43:29;;;;;;;;;3.00;2.00;;;;;21.40;71.66;100058.88;5036869;28;45331;-79
2021/07/06 00:45:58;;;;;;;;;2.50;1.00;;;;;21.41;71.81;100063.25;5020363;28;45479;-79
2021/07/06 00:48:24;;;;;;;;;2.00;1.00;;;;;21.43;71.60;100063.94;5021413;28;45463;-80
2021/07/06 00:50:50;;;;;;;;;2.75;1.25;;;;;21.43;71.70;100072.78;5020373;28;46990;-80
2021/07/06 00:53:15;;;;;;;;;2.25;1.75;;;;;21.40;71.27;100073.09;5020822;28;45587;-79
2021/07/06 00:55:43;;;;;;;;;2.00;2.00;;;;;21.39;71.90;100058.06;5021863;28;45487;-80
2021/07/06 00:58:11;;;;;;;;;1.25;1.00;;;;;21.38;70.74;100061.72;5021266;28;45352;-81
2021/07/06 01:00:36;;;;;;;;;1.00;1.00;;;;;21.40;70.86;100056.22;5020726;28;45455;-80
2021/07/06 01:03:02;;;;;;;;;2.00;0.75;;;;;21.35;70.61;100059.34;5020695;28;45512;-79
2021/07/06 01:05:27;;;;;;;;;0.75;0.25;;;;;21.33;70.61;100061.34;5019838;28;45812;-79
2021/07/06 01:07:53;;;;;;;;;1.00;1.00;;;;;21.31;70.26;100053.47;5021454;28;45313;-77
2021/07/06 01:10:20;;;;;;;;;0.00;0.00;;;;;21.29;69.94;100057.25;5018930;28;45696;-80
2021/07/06 01:12:46;;;;;;;;;0.00;0.00;;;;;21.29;69.78;100059.91;5020203;28;45277;-80
2021/07/06 01:15:14;;;;;;;;;0.00;0.00;;;;;21.26;69.19;100063.75;5019533;28;45501;-81
2021/07/06 01:17:43;;;;;;;;;1.00;1.00;;;;;21.27;69.11;100064.59;5018847;28;45405;-81
2021/07/06 01:20:15;;;;;;;;;0.00;0.00;;;;;21.26;69.07;100078.94;5015890;28;45428;-80
2021/07/06 01:22:41;;;;;;;;;0.00;0.00;;;;;21.26;69.48;100084.28;5014791;28;45372;-80
2021/07/06 01:25:09;;;;;;;;;0.00;0.00;;;;;21.26;68.75;100109.19;5000361;28;45681;-79
2021/07/06 01:27:36;;;;;;;;;1.75;0.00;;;;;21.24;69.11;100110.31;4996017;28;45576;-81
2021/07/06 01:30:03;;;;;;;;;1.00;1.00;;;;;21.21;69.02;100103.44;4996611;28;45449;-80
2021/07/06 01:32:28;;;;;;;;;0.50;0.50;;;;;21.20;69.02;100083.06;4995596;28;45389;-81
2021/07/06 01:34:54;;;;;;;;;0.00;0.00;;;;;21.19;68.93;100085.84;4998424;28;45296;-79
2021/07/06 01:37:20;;;;;;;;;1.25;0.25;;;;;21.16;68.90;100100.38;4996172;28;45452;-80
2021/07/06 01:39:47;;;;;;;;;0.00;0.00;;;;;21.13;69.40;100098.00;4996712;28;45401;-80
2021/07/06 01:42:19;;;;;;;;;0.00;0.00;;;;;21.10;69.14;100082.28;4996125;28;45282;-80
2021/07/06 01:44:44;;;;;;;;;0.00;0.00;;;;;21.07;68.71;100074.53;4996714;28;45337;-80
2021/07/06 01:47:09;;;;;;;;;0.00;0.00;;;;;21.02;69.12;100100.88;4996699;28;45472;-80
2021/07/06 01:49:35;;;;;;;;;0.00;0.00;;;;;20.97;69.11;100100.47;4997426;28;45532;-80
2021/07/06 01:52:01;;;;;;;;;1.75;0.00;;;;;20.93;69.36;100096.41;4995639;28;45445;-80
2021/07/06 01:54:26;;;;;;;;;1.00;1.00;;;;;20.90;68.88;100094.03;4996603;28;45422;-80
2021/07/06 01:56:51;;;;;;;;;0.00;0.00;;;;;20.87;69.59;100100.50;4996952;28;45428;-80
2021/07/06 01:59:17;;;;;;;;;1.00;0.00;;;;;20.83;69.29;100102.66;4996685;28;45796;-80
2021/07/06 02:01:45;;;;;;;;;0.50;0.50;;;;;20.82;69.28;100124.16;4996665;28;45342;-79
2021/07/06 02:04:13;;;;;;;;;0.50;0.00;;;;;20.81;69.78;100149.19;4996370;28;46383;-80
2021/07/06 02:06:38;;;;;;;;;1.25;0.00;;;;;20.76;69.48;100154.94;4996319;28;45707;-80
2021/07/06 02:09:04;;;;;;;;;0.00;0.00;;;;;20.77;69.60;100151.28;4996137;28;45377;-78
2021/07/06 02:11:30;;;;;;;;;0.00;0.00;;;;;20.74;69.65;100158.78;4996502;28;45401;-80
2021/07/06 02:13:55;;;;;;;;;3.00;0.00;;;;;20.72;69.87;100166.91;4996755;28;45512;-80
2021/07/06 02:16:22;;;;;;;;;0.25;0.25;;;;;20.67;69.68;100165.66;4996294;28;45466;-79
2021/07/06 02:18:47;;;;;;;;;0.00;0.00;;;;;20.61;70.10;100168.91;4996321;28;45528;-80
2021/07/06 02:21:13;;;;;;;;;0.75;0.00;;;;;20.55;69.85;100179.16;4995097;28;45586;-80
2021/07/06 02:23:39;;;;;;;;;2.00;0.25;;;;;20.52;69.95;100179.47;4995785;28;46164;-80
2021/07/06 02:26:08;;;;;;;;;1.00;0.25;;;;;20.49;70.40;100178.91;4996361;28;45362;-80
2021/07/06 02:28:35;;;;;;;;;0.00;0.00;;;;;20.47;70.37;100191.56;4997892;28;45508;-80
2021/07/06 02:31:01;;;;;;;;;1.75;1.50;;;;;20.45;70.32;100201.50;4996613;28;49604;-80
2021/07/06 02:33:32;;;;;;;;;0.00;0.00;;;;;20.40;70.07;100195.75;4995411;28;45996;-79
2021/07/06 02:35:59;;;;;;;;;0.00;0.00;;;;;20.35;70.35;100190.81;4998079;28;45648;-80
2021/07/06 02:38:24;;;;;;;;;0.00;0.00;;;;;20.33;70.53;100174.97;4997087;28;45526;-79
2021/07/06 02:40:49;;;;;;;;;0.00;0.00;;;;;20.30;70.65;100169.06;4997853;28;45338;-80
2021/07/06 02:43:15;;;;;;;;;0.00;0.00;;;;;20.29;70.91;100178.91;4996534;28;45432;-79
2021/07/06 02:45:40;;;;;;;;;2.75;0.00;;;;;20.27;70.52;100158.69;4994313;28;48053;-80
2021/07/06 02:48:07;;;;;;;;;1.25;0.00;;;;;20.24;70.65;100164.31;4996259;28;45730;-80
2021/07/06 02:50:33;;;;;;;;;1.00;0.00;;;;;20.19;70.91;100172.72;4994864;28;45467;-80
2021/07/06 02:52:58;;;;;;;;;0.00;0.00;;;;;20.16;71.44;100172.19;4996790;28;45324;-79
2021/07/06 02:55:24;;;;;;;;;0.75;0.75;;;;;20.14;71.23;100184.81;4997462;28;45475;-80
2021/07/06 02:57:52;;;;;;;;;0.00;0.00;;;;;20.11;71.17;100185.94;4997748;28;45377;-80
2021/07/06 03:00:27;;;;;;;;;0.00;0.00;;;;;20.11;71.67;100174.44;4996068;28;45619;-80
2021/07/06 03:02:55;;;;;;;;;0.00;0.00;;;;;20.06;71.89;100183.69;4995792;28;46456;-80
2021/07/06 03:05:22;;;;;;;;;0.00;0.00;;;;;20.01;71.84;100182.44;4995196;28;45935;-80
2021/07/06 03:07:49;;;;;;;;;2.00;0.00;;;;;19.98;71.47;100186.19;4996718;28;45451;-79
2021/07/06 03:10:18;;;;;;;;;0.00;0.00;;;;;19.97;71.99;100194.34;4997279;28;45648;-80
2021/07/06 03:12:44;;;;;;;;;0.00;0.00;;;;;19.93;71.97;100207.13;4996400;28;45390;-80
2021/07/06 03:15:12;;;;;;;;;0.00;0.00;;;;;19.91;72.05;100194.91;4996263;28;45779;-80
2021/07/06 03:17:38;;;;;;;;;1.00;0.00;;;;;19.86;71.68;100182.00;4995500;28;45385;-80
2021/07/06 03:20:06;;;;;;;;;0.00;0.00;;;;;19.85;71.49;100184.81;4994531;28;45341;-79
2021/07/06 03:22:31;;;;;;;;;0.00;0.00;;;;;19.80;72.04;100187.88;5010668;28;46905;-79
2021/07/06 03:24:57;;;;;;;;;0.00;0.00;;;;;19.79;71.96;100186.22;4996250;28;45247;-79
2021/07/06 03:27:23;;;;;;;;;0.00;0.00;;;;;19.76;71.49;100191.81;4996816;28;45630;-80
2021/07/06 03:29:49;;;;;;;;;0.25;0.00;;;;;19.74;71.74;100183.13;4996596;28;45491;-80
2021/07/06 03:32:14;;;;;;;;;0.00;0.00;;;;;19.71;71.28;100188.72;4995837;28;46411;-80
2021/07/06 03:34:40;;;;;;;;;0.25;0.25;;;;;19.70;71.49;100185.19;4995238;28;45393;-80
2021/07/06 03:37:07;;;;;;;;;0.50;0.50;;;;;19.65;71.10;100168.78;4998038;28;45392;-79
2021/07/06 03:39:35;;;;;;;;;0.50;0.50;;;;;19.62;71.10;100170.88;4977266;28;45489;-80
2021/07/06 03:42:00;;;;;;;;;0.00;0.00;;;;;19.58;70.84;100177.44;4996285;28;45521;-81
2021/07/06 03:44:26;;;;;;;;;0.00;0.00;;;;;19.53;71.12;100173.34;4996089;28;45245;-80
2021/07/06 03:46:51;;;;;;;;;0.00;0.00;;;;;19.50;70.59;100178.13;4995535;28;45223;-78
2021/07/06 03:49:16;;;;;;;;;0.00;0.00;;;;;19.45;69.64;100159.88;4994189;28;45409;-79
2021/07/06 03:51:42;;;;;;;;;0.00;0.00;;;;;19.43;69.18;100185.81;4996843;28;45613;-80
2021/07/06 03:54:07;;;;;;;;;2.50;0.50;;;;;19.37;69.51;100189.03;4996217;28;45680;-80
2021/07/06 03:56:32;;;;;;;;;0.50;0.50;;;;;19.32;68.74;100182.44;4996139;28;45509;-79
2021/07/06 03:58:58;;;;;;;;;2.25;0.00;;;;;19.23;68.61;100187.56;4995304;28;46571;-79
2021/07/06 04:01:23;;;;;;;;;0.50;0.50;;;;;19.15;67.82;100187.38;4994356;28;49840;-79
2021/07/06 04:03:48;;;;;;;;;2.00;0.50;;;;;19.07;68.47;100189.91;4996154;28;47093;-79
2021/07/06 04:06:14;;;;;;;;;1.50;1.00;;;;;19.04;68.29;100191.00;4995929;28;45629;-79
2021/07/06 04:08:39;;;;;;;;;0.25;0.00;;;;;18.99;67.46;100193.22;4996555;28;45376;-79
2021/07/06 04:11:04;;;;;;;;;0.75;0.75;;;;;18.95;67.21;100197.13;4996438;28;46942;-79
2021/07/06 04:13:30;;;;;;;;;0.50;0.00;;;;;18.91;67.72;100206.34;4997935;28;45482;-80
2021/07/06 04:15:55;;;;;;;;;1.00;0.50;;;;;18.89;67.58;100204.78;4997572;28;45520;-79
2021/07/06 04:18:20;;;;;;;;;4.00;0.00;;;;;18.85;67.91;100211.38;4994092;28;45551;-79
2021/07/06 04:20:45;;;;;;;;;2.00;0.00;;;;;18.82;67.85;100219.63;4994592;28;49290;-80
2021/07/06 04:23:11;;;;;;;;;1.75;0.75;;;;;18.81;68.31;100225.91;4995039;28;45441;-80
2021/07/06 04:25:37;;;;;;;;;0.00;0.00;;;;;18.78;68.88;100225.19;4995695;28;45488;-80
2021/07/06 04:28:03;;;;;;;;;1.00;0.00;;;;;18.75;68.42;100221.97;4996642;28;45543;-80
2021/07/06 04:30:28;;;;;;;;;2.00;0.50;;;;;18.71;68.84;100226.69;4994845;28;45357;-80
2021/07/06 04:32:54;;;;;;;;;0.50;0.50;;;;;18.67;68.13;100230.56;4994478;28;48218;-80
2021/07/06 04:35:22;;;;;;;;;0.50;0.00;;;;;18.65;68.44;100237.00;4994730;28;45556;-79
2021/07/06 04:37:48;;;;;;;;;0.50;0.00;;;;;18.63;68.15;100238.91;4997028;28;45433;-80
2021/07/06 04:40:14;;;;;;;;;4.25;1.00;;;;;18.61;68.13;100235.56;4994201;28;46013;-80
2021/07/06 04:42:39;;;;;;;;;2.00;0.75;;;;;18.59;67.78;100245.50;4994083;28;45361;-80
2021/07/06 04:45:05;;;;;;;;;3.00;0.00;;;;;18.57;68.21;100255.41;4993392;28;45273;-80
2021/07/06 04:47:30;;;;;;;;;1.00;1.00;;;;;18.55;67.58;100244.91;4994614;28;45305;-80
2021/07/06 04:49:55;;;;;;;;;1.00;0.00;;;;;18.55;67.44;100246.72;4994022;28;45297;-81
2021/07/06 04:52:21;;;;;;;;;3.25;0.25;;;;;18.55;67.50;100247.56;4994165;28;45397;-81
2021/07/06 04:54:46;;;;;;;;;0.75;0.50;;;;;18.57;67.18;100250.94;4993874;28;45569;-80
2021/07/06 04:57:12;;;;;;;;;2.00;0.75;;;;;18.61;67.56;100249.72;4994994;28;45563;-79
2021/07/06 04:59:37;;;;;;;;;1.00;0.75;;;;;18.71;67.25;100268.44;4998013;28;46031;-79
2021/07/06 05:02:03;;;;;;;;;1.75;1.75;;;;;18.80;66.86;100262.34;4995006;28;45463;-80
2021/07/06 05:04:29;;;;;;;;;1.00;0.00;;;;;18.91;67.05;100254.28;4997740;28;45211;-80
2021/07/06 05:06:54;;;;;;;;;2.25;2.25;;;;;19.00;66.36;100257.97;4995442;28;45383;-80
2021/07/06 05:09:20;;;;;;;;;1.50;0.50;;;;;19.10;65.99;100263.34;4997839;28;45410;-80
2021/07/06 05:11:45;;;;;;;;;2.75;1.25;;;;;19.17;64.93;100269.84;4998385;28;45340;-80
2021/07/06 05:14:11;;;;;;;;;2.00;0.75;;;;;19.23;64.30;100271.97;4996362;28;45404;-80
2021/07/06 05:16:36;;;;;;;;;1.00;1.00;;;;;19.26;63.50;100269.03;4998043;28;45274;-79
2021/07/06 05:19:01;;;;;;;;;1.25;1.00;;;;;19.29;63.47;100274.09;4999189;28;45389;-79
2021/07/06 05:21:27;;;;;;;;;1.00;0.00;;;;;19.32;63.21;100273.84;4998606;28;45437;-80
2021/07/06 05:23:52;;;;;;;;;3.00;1.50;;;;;19.33;62.57;100280.03;5001684;28;45578;-78
2021/07/06 05:26:17;;;;;;;;;1.75;0.50;;;;;19.37;62.67;100284.97;5017639;28;45607;-78
2021/07/06 05:28:43;;;;;;;;;0.25;0.25;;;;;19.42;61.70;100273.88;5017063;28;45913;-79
2021/07/06 05:31:08;;;;;;;;;3.00;2.00;;;;;19.41;61.63;100278.34;5015230;28;45410;-79
2021/07/06 05:33:33;;;;;;;;;2.50;0.00;;;;;19.39;61.90;100283.00;5015867;28;45419;-79
2021/07/06 05:35:59;;;;;;;;;3.25;1.00;;;;;19.34;61.63;100281.69;5017253;28;45533;-80
2021/07/06 05:38:24;;;;;;;;;0.50;0.25;;;;;19.29;61.83;100284.75;5016385;28;45315;-79
2021/07/06 05:40:54;;;;;;;;;5.50;1.75;;;;;19.24;61.19;100292.31;5016872;28;45373;-78
2021/07/06 05:43:20;;;;;;;;;4.00;1.75;;;;;19.17;61.05;100285.84;5017123;28;45567;-79
2021/07/06 05:45:45;;;;;;;;;6.75;2.75;;;;;19.12;61.27;100296.03;5016137;28;45543;-78
2021/07/06 05:48:11;;;;;;;;;4.00;1.00;;;;;19.12;61.48;100299.53;5016671;28;45479;-79
2021/07/06 05:50:36;;;;;;;;;3.25;2.00;;;;;19.18;61.61;100303.50;5016210;28;45490;-79
2021/07/06 05:53:02;;;;;;;;;1.00;1.00;;;;;19.28;61.41;100313.22;5016707;28;45564;-80
2021/07/06 05:55:27;;;;;;;;;4.00;0.00;;;;;20.12;61.59;100309.50;5016572;28;45367;-79
2021/07/06 05:57:53;;;;;;;;;0.75;0.00;;;;;20.85;58.76;100313.50;5017187;28;45428;-79
2021/07/06 06:00:18;;;;;;;;;1.25;0.50;;;;;21.56;58.19;100305.91;5014156;28;45751;-77
2021/07/06 06:02:44;;;;;;;;;4.25;1.75;;;;;21.40;57.96;100304.81;5016637;28;45504;-78
2021/07/06 06:05:10;;;;;;;;;0.75;0.75;;;;;20.98;57.60;100310.50;5015208;28;45819;-80
2021/07/06 06:07:42;;;;;;;;;1.50;1.50;;;;;20.69;58.40;100326.56;5016873;28;47075;-79
2021/07/06 06:10:10;;;;;;;;;3.00;1.00;;;;;20.47;58.47;100315.19;5015750;28;45381;-81
2021/07/06 06:12:36;;;;;;;;;1.25;1.25;;;;;20.25;58.83;100318.06;5020575;28;45379;-80
2021/07/06 06:15:04;;;;;;;;;1.25;0.00;;;;;20.14;59.04;100318.19;5016280;28;45582;-81
2021/07/06 06:17:29;;;;;;;;;2.00;1.75;;;;;20.08;59.04;100331.09;5000845;28;45271;-80
2021/07/06 06:19:55;;;;;;;;;1.00;1.00;;;;;20.10;59.34;100343.44;5014948;28;45728;-80
2021/07/06 06:22:20;;;;;;;;;2.50;1.50;;;;;20.13;58.87;100340.53;5016225;28;45419;-78
2021/07/06 06:24:45;;;;;;;;;2.75;1.00;;;;;20.19;58.73;100331.97;5012822;28;45569;-79
2021/07/06 06:27:12;;;;;;;;;5.50;1.75;;;;;20.15;59.01;100344.75;5008409;28;45583;-79
2021/07/06 06:29:37;;;;;;;;;6.00;2.00;;;;;20.18;59.08;100354.31;5015636;28;45475;-79
2021/07/06 06:32:03;;;;;;;;;3.75;1.00;;;;;20.20;59.51;100365.66;5016580;28;45472;-79
2021/07/06 06:34:28;;;;;;;;;2.75;1.50;;;;;20.20;59.27;100376.34;5014619;28;45377;-79
2021/07/06 06:36:53;;;;;;;;;3.50;1.00;;;;;20.14;58.71;100372.41;5016032;28;53235;-79
2021/07/06 06:39:19;;;;;;;;;3.25;2.00;;;;;19.98;58.52;100356.91;5012702;28;45464;-79
2021/07/06 06:41:45;;;;;;;;;2.00;1.25;;;;;19.84;57.62;100369.75;5002992;28;45354;-79
2021/07/06 06:44:11;;;;;;;;;1.50;1.50;;;;;19.65;58.56;100366.03;5011582;28;45309;-79
2021/07/06 06:46:36;;;;;;;;;2.25;0.50;;;;;19.50;59.62;100370.00;5016454;28;53181;-79
2021/07/06 06:49:04;;;;;;;;;1.50;1.50;;;;;19.41;59.63;100376.13;5014628;28;45507;-78
2021/07/06 06:51:31;;;;;;;;;4.50;2.75;;;;;19.29;60.44;100370.03;5015611;28;45332;-78
2021/07/06 06:53:56;;;;;;;;;2.00;1.00;;;;;19.17;62.07;100366.59;5015660;28;45471;-79
2021/07/06 06:56:21;;;;;;;;;5.25;2.00;;;;;19.12;61.93;100365.28;5015591;28;45480;-79
2021/07/06 06:58:47;;;;;;;;;3.75;2.50;;;;;19.09;62.13;100377.03;5016445;28;52312;-79
2021/07/06 07:01:12;;;;;;;;;2.75;1.50;;;;;19.10;62.65;100372.53;5015437;28;45365;-79
2021/07/06 07:03:37;;;;;;;;;5.75;2.00;;;;;19.16;61.71;100375.56;5016108;28;45373;-79
2021/07/06 07:06:02;;;;;;;;;3.50;2.00;;;;;19.14;61.91;100385.47;5014669;28;45924;-79
2021/07/06 07:08:28;;;;;;;;;4.50;2.75;;;;;19.12;61.85;100391.94;4998119;28;45436;-78
2021/07/06 07:10:53;;;;;;;;;3.00;2.50;;;;;19.11;61.72;100383.09;5015705;28;46064;-78
2021/07/06 07:13:18;;;;;;;;;7.25;3.00;;;;;19.12;61.94;100402.59;5015542;28;45400;-79
2021/07/06 07:15:44;;;;;;;;;7.00;1.50;;;;;19.11;61.24;100400.91;5015561;28;46048;-79
2021/07/06 07:18:09;;;;;;;;;2.25;2.25;;;;;19.12;61.29;100411.41;5014586;28;45420;-79
2021/07/06 07:20:35;;;;;;;;;1.25;1.00;;;;;19.10;60.58;100402.69;5015427;28;45442;-78
2021/07/06 07:23:01;;;;;;;;;4.50;3.25;;;;;19.12;61.44;100398.09;5015940;28;45538;-79
2021/07/06 07:25:29;;;;;;;;;3.50;1.50;;;;;19.18;61.34;100410.91;4996574;28;45428;-79
2021/07/06 07:27:55;;;;;;;;;2.00;2.00;;;;;19.30;61.46;100414.34;4994432;28;45728;-79
2021/07/06 07:30:21;;;;;;;;;6.25;3.00;;;;;19.37;60.21;100412.00;4994129;28;45199;-78
2021/07/06 07:32:47;;;;;;;;;5.00;2.00;;;;;19.34;60.86;100414.94;4994275;28;45596;-79
2021/07/06 07:35:14;;;;;;;;;5.00;3.00;;;;;19.34;61.14;100422.94;4994426;28;45402;-79
2021/07/06 07:37:39;;;;;;;;;5.50;4.00;;;;;19.35;60.85;100413.94;4995003;28;45382;-79
2021/07/06 07:40:05;;;;;;;;;2.25;1.00;;;;;19.36;60.39;100432.47;4994457;28;45453;-79
2021/07/06 07:42:31;;;;;;;;;3.00;3.00;;;;;19.28;60.59;100433.13;4993690;28;45333;-79
2021/07/06 07:44:57;;;;;;;;;3.50;2.00;;;;;19.28;60.46;100430.47;4995129;28;45505;-80
2021/07/06 07:47:22;;;;;;;;;3.75;2.50;;;;;19.29;60.77;100445.47;4995081;28;45373;-80
2021/07/06 07:49:47;;;;;;;;;3.00;1.75;;;;;19.28;60.67;100446.44;4995870;28;46660;-79
2021/07/06 07:52:13;;;;;;;;;5.00;3.75;;;;;19.29;60.59;100449.94;4995173;28;45452;-79
2021/07/06 07:54:38;;;;;;;;;2.00;2.00;;;;;19.37;60.35;100439.50;4994954;28;45286;-79
2021/07/06 07:57:07;;;;;;;;;5.00;3.00;;;;;19.45;61.11;100439.69;4993433;28;45797;-79
2021/07/06 07:59:33;;;;;;;;;5.25;4.25;;;;;19.54;59.89;100441.56;4993915;28;45892;-80
2021/07/06 08:01:58;;;;;;;;;2.50;2.50;;;;;19.64;60.68;100448.84;4996189;28;45488;-86
2021/07/06 08:04:24;;;;;;;;;2.00;2.00;;;;;19.64;59.49;100446.16;4994991;28;45517;-79
2021/07/06 08:06:49;;;;;;;;;4.75;4.00;;;;;19.68;59.95;100447.56;4995304;28;45495;-79
2021/07/06 08:09:14;;;;;;;;;6.50;4.50;;;;;19.78;59.49;100451.13;4994756;28;45719;-80
2021/07/06 08:11:40;;;;;;;;;2.25;2.00;;;;;19.79;59.72;100463.50;4995395;28;45372;-80
2021/07/06 08:14:05;;;;;;;;;5.50;2.00;;;;;19.78;59.47;100460.00;4999907;28;46242;-81
2021/07/06 08:16:31;;;;;;;;;7.25;3.50;;;;;19.78;59.13;100462.69;5000076;28;45817;-81
2021/07/06 08:18:56;;;;;;;;;5.00;2.25;;;;;19.79;58.45;100479.50;4999987;28;45408;-80
2021/07/06 08:21:21;;;;;;;;;5.75;2.75;;;;;19.76;59.03;100467.28;5000380;28;45477;-81
2021/07/06 08:23:46;;;;;;;;;4.25;1.25;;;;;19.83;58.52;100469.41;5000778;28;45389;-79
2021/07/06 08:26:12;;;;;;;;;1.75;1.00;;;;;19.87;59.05;100482.34;5000810;28;45401;-80
2021/07/06 08:28:38;;;;;;;;;5.00;2.00;;;;;19.89;58.83;100488.41;5001014;28;45655;-79
2021/07/06 08:31:03;;;;;;;;;3.50;2.75;;;;;19.91;59.08;100494.44;5002280;28;45515;-79
2021/07/06 08:33:28;;;;;;;;;1.00;0.75;;;;;19.98;58.42;100487.59;5000816;28;45369;-78
2021/07/06 08:35:54;;;;;;;;;4.00;1.75;;;;;19.98;58.41;100495.59;5002509;28;45254;-80
2021/07/06 08:38:19;;;;;;;;;4.00;3.00;;;;;20.05;58.84;100493.28;5002074;28;45521;-79
2021/07/06 08:40:49;;;;;;;;;2.25;2.00;;;;;20.16;58.60;100503.84;5001457;28;45389;-80
2021/07/06 08:43:15;;;;;;;;;4.50;2.25;;;;;20.31;58.09;100507.03;5000846;28;46036;-80
2021/07/06 08:45:42;;;;;;;;;4.00;2.00;;;;;20.37;57.21;100493.13;5002012;28;45471;-77
2021/07/06 08:48:10;;;;;;;;;2.00;1.00;;;;;20.33;57.67;100505.88;5000404;28;45691;-77
2021/07/06 08:50:36;;;;;;;;;2.75;2.75;;;;;20.33;57.70;100507.72;5001127;28;45552;-79
2021/07/06 08:53:01;;;;;;;;;1.50;1.50;;;;;20.36;58.32;100518.13;4997897;28;46281;-78
2021/07/06 08:55:26;;;;;;;;;4.75;1.75;;;;;20.46;57.44;100515.47;4999219;28;47534;-79
2021/07/06 08:57:52;;;;;;;;;2.50;2.50;;;;;20.51;57.41;100514.13;4996272;28;45448;-79
2021/07/06 09:00:18;;;;;;;;;6.00;3.75;;;;;20.62;57.09;100520.34;4995105;28;45484;-79
2021/07/06 09:02:57;;;;;;;;;2.75;2.50;;;;;20.67;57.04;100521.63;4993920;28;46273;-78
2021/07/06 09:05:23;;;;;;;;;3.25;2.00;;;;;20.69;57.18;100522.34;4999404;28;45341;-78
2021/07/06 09:07:49;;;;;;;;;4.00;2.50;;;;;20.78;57.43;100521.53;4993387;28;45528;-78
2021/07/06 09:10:17;;;;;;;;;4.75;1.75;;;;;20.87;57.57;100535.88;4998432;28;45373;-79
2021/07/06 09:12:44;;;;;;;;;2.25;2.25;;;;;20.90;56.24;100550.81;4994692;28;46388;-78
2021/07/06 09:15:19;;;;;;;;;4.00;1.50;;;;;20.81;56.68;100533.75;4993985;28;45644;-78
2021/07/06 09:17:45;;;;;;;;;3.25;2.00;;;;;20.79;56.42;100530.41;4996633;28;45345;-77
2021/07/06 09:20:11;;;;;;;;;1.25;0.75;;;;;20.94;56.42;100530.84;4993652;28;45523;-77
2021/07/06 09:22:37;;;;;;;;;4.25;2.50;;;;;21.15;56.54;100528.91;4993751;28;45501;-78
2021/07/06 09:25:03;;;;;;;;;3.00;1.50;;;;;21.55;55.91;100546.69;4992281;28;45350;-79
2021/07/06 09:27:33;;;;;;;;;3.00;3.00;;;;;21.81;56.07;100547.78;4996254;28;45391;-80
2021/07/06 09:30:05;;;;;;;;;5.50;1.25;;;;;21.98;54.70;100526.63;4995321;28;45510;-80
2021/07/06 09:32:32;;;;;;;;;4.75;3.00;;;;;22.56;54.61;100523.78;4993261;28;45568;-80
2021/07/06 09:35:11;;;;;;;;;3.00;2.00;;;;;23.53;53.40;100517.78;4993234;28;45817;-79
2021/07/06 09:37:46;;;;;;;;;3.00;2.50;;;;;24.06;51.58;100539.16;4994323;28;45451;-80
2021/07/06 09:40:38;;;;;;;;;1.00;1.00;;;;;24.42;51.15;100536.38;4994429;28;45404;-80
2021/07/06 09:43:24;;;;;;;;;4.00;1.00;;;;;24.58;50.19;100531.09;4994657;28;45536;-79
2021/07/06 09:46:09;;;;;;;;;2.00;1.50;;;;;24.46;49.90;100527.03;4995616;28;45729;-79
2021/07/06 09:48:39;;;;;;;;;2.00;2.00;;;;;24.73;49.20;100537.53;4996920;28;45452;-79
2021/07/06 09:51:18;;;;;;;;;1.25;1.25;;;;;25.76;47.00;100539.97;4996379;28;45591;-79
2021/07/06 09:53:49;;;;;;;;;4.25;1.00;;;;;26.50;47.42;100544.19;4985149;28;45484;-79
2021/07/06 09:56:17;;;;;;;;;1.00;1.00;;;;;28.05;45.60;100539.69;4996888;28;45327;-78
2021/07/06 09:59:13;;;;;;;;;2.00;1.75;;;;;29.67;42.03;100556.72;4996577;28;45485;-79
2021/07/06 10:01:51;;;;;;;;;1.25;1.25;;;;;31.05;41.58;100532.31;4994455;28;45381;-78
2021/07/06 10:04:17;;;;;;;;;1.25;1.00;;;;;31.86;38.81;100545.03;4995120;28;46319;-79
2021/07/06 10:06:42;;;;;;;;;3.50;0.75;;;;;31.75;38.74;100549.19;4996910;28;45459;-79
2021/07/06 10:09:07;;;;;;;;;1.25;1.25;;;;;31.42;40.66;100535.56;4997946;28;45412;-80
2021/07/06 10:11:37;;;;;;;;;1.75;1.50;;;;;30.98;40.01;100553.19;4995491;28;45476;-80
2021/07/06 10:14:02;;;;;;;;;2.00;1.00;;;;;31.20;37.98;100562.00;4995229;28;47773;-79
2021/07/06 10:16:29;;;;;;;;;1.00;1.00;;;;;30.99;37.21;100562.16;4996771;28;45530;-79
2021/07/06 10:18:56;;;;;;;;;1.75;1.75;;;;;30.77;35.19;100564.16;4996916;28;45416;-79
2021/07/06 10:21:22;;;;;;;;;2.25;1.00;;;;;30.55;37.63;100568.84;4995097;28;45492;-79
2021/07/06 10:23:50;;;;;;;;;1.25;1.00;;;;;30.00;37.40;100579.47;4995625;28;49605;-80
2021/07/06 10:26:23;;;;;;;;;1.25;1.25;;;;;29.01;38.35;100578.47;4996452;28;45238;-79
2021/07/06 10:28:53;;;;;;;;;3.50;2.00;;;;;28.67;40.20;100576.34;4993111;28;45525;-79
2021/07/06 10:31:19;;;;;;;;;2.50;1.00;;;;;28.41;38.70;100571.44;4995800;28;45730;-79
2021/07/06 10:33:47;;;;;;;;;1.50;1.00;;;;;28.31;39.24;100568.97;4995629;28;46934;-79
2021/07/06 10:36:13;;;;;;;;;0.00;0.00;;;;;27.89;37.70;100570.38;4994659;28;45749;-79
2021/07/06 10:38:48;;;;;;;;;2.00;1.00;;;;;27.21;38.98;100582.00;4997123;28;46001;-79
2021/07/06 10:41:21;;;;;;;;;1.25;1.25;;;;;26.96;40.03;100579.41;4995698;28;45564;-81
2021/07/06 10:43:46;;;;;;;;;3.00;1.75;;;;;26.82;39.58;100573.91;4993952;28;46305;-78
2021/07/06 10:46:20;;;;;;;;;2.67;1.00;;;;;26.53;40.42;100581.59;4995871;28;45824;-84
2021/07/06 10:49:10;;;;;;;;;2.00;1.00;;;;;26.38;40.52;100588.69;4995246;28;45744;-83
2021/07/06 10:51:36;;;;;;;;;0.00;0.00;;;;;26.01;40.84;100594.63;4995253;28;45580;-80
2021/07/06 10:54:11;;;;;;;;;1.25;1.00;;;;;25.49;41.22;100586.84;4995592;28;46004;-81
2021/07/06 10:56:39;;;;;;;;;4.00;1.00;;;;;25.03;41.98;100594.44;4994826;28;45548;-75
2021/07/06 10:59:05;;;;;;;;;2.00;2.00;;;;;24.73;42.54;100588.59;4996478;28;45314;-75
2021/07/06 11:01:36;;;;;;;;;1.25;1.25;;;;;24.53;43.43;100589.00;4997369;28;45547;-77
2021/07/06 11:04:07;;;;;;;;;0.00;0.00;;;;;24.58;43.51;100590.19;4997124;28;45893;-75
2021/07/06 11:06:47;;;;;;;;;2.00;1.00;;;;;24.94;43.06;100604.31;4993958;28;45833;-79
2021/07/06 11:09:25;;;;;;;;;1.25;1.25;;;;;25.24;42.60;100605.63;4995520;28;45541;-78
2021/07/06 11:11:50;;;;;;;;;1.00;1.00;;;;;25.34;43.29;100623.47;4991027;28;45486;-78
2021/07/06 11:14:27;;;;;;;;;4.00;1.50;;;;;25.36;43.00;100598.06;4996519;28;46754;-75
2021/07/06 11:17:00;;;;;;;;;1.00;1.00;;;;;25.42;42.13;100613.59;4994274;28;45431;-79
2021/07/06 11:19:36;;;;;;;;;2.25;1.75;;;;;25.51;42.63;100611.72;4995831;28;45396;-78
2021/07/06 11:22:20;;;;;;;;;0.50;0.50;;;;;25.35;42.96;100614.38;4993232;28;45369;-78
2021/07/06 11:24:47;;;;;;;;;1.00;1.00;;;;;25.30;43.01;100600.59;5022827;28;47160;-75